Nearby METAR Reports

 

KRDU - Raleigh/Durham, North Carolina, USA
Distance from station: NNW 20mi, 33km
Updated: Tue, 15-Oct-2019 11:51am EDT
Few Clouds
Few Clouds
 Wind from E
Wind: E 6 mph , 9 km/h
Temperature: 72°F , 22°C
Dew Point: 43°F , 6°C
Humidity: 36%
Barometer: 30.15 inHg , 1021 hPa
Clouds: Few Clouds
Visibility: 10 miles , 16 km
Cloud details: Few Clouds 25000 ft
2019/10/15 15:51 KRDU 151551Z 08005KT 10SM FEW250 22/06 A3015 RMK AO2 SLP206 T02220061
KJNX - Smithfield Johns, North Carolina, USA
Distance from station: ESE 17mi, 28km
Updated: Tue, 15-Oct-2019 12:15pm EDT
Clear
Clear
 Wind from ENE
Wind: ENE 5 mph , 7 km/h
Temperature: 73°F , 23°C
Dew Point: 45°F , 7°C
Humidity: 36%
Barometer: 30.13 inHg , 1020.3 hPa
Clouds: Clear
Visibility: 10 miles , 16 km
2019/10/15 16:15 KJNX 151615Z AUTO 06004KT 10SM CLR 23/07 A3013 RMK AO2
 
KLHZ - Louisburg/Frankl, North Carolina, USA
Distance from station: NE 33mi, 54km
Updated: Tue, 15-Oct-2019 11:55am EDT
Clear
Clear
 Wind from E
Wind: E 6 mph , 9 km/h
Temperature: 72°F , 22°C
Dew Point: 45°F , 7°C
Humidity: 38%
Barometer: 30.18 inHg , 1022 hPa
Clouds: Clear
Visibility: 10 miles , 16 km
2019/10/15 15:55 KLHZ 151555Z AUTO 09005KT 10SM CLR 22/07 A3018 RMK AO2
KPOB - Pope Afb, North Carolina, USA
Distance from station: SSW 37mi, 59km
Updated: Tue, 15-Oct-2019 11:56am EDT
Clear
Clear
 Wind from ENE
Wind: ENE 6 mph , 9 km/h
Temperature: 73°F , 23°C
Dew Point: 48°F , 9°C
Humidity: 41%
Barometer: 30.13 inHg , 1020.3 hPa
Clouds: Clear
Visibility: 10 miles , 16 km
2019/10/15 15:56 KPOB 151556Z AUTO 07005KT 10SM CLR 23/09 A3013 RMK AO2 SLP205 T02280088 $
 
KSCR - Siler City, North Carolina, USA
Distance from station: W 47mi, 75km
Updated: Tue, 15-Oct-2019 11:55am EDT
Clear
Clear
 Wind from NE
Wind: NE 5 mph , 7 km/h
Temperature: 72°F , 22°C
Dew Point: 45°F , 7°C
Humidity: 38%
Barometer: 30.16 inHg , 1021.3 hPa
Clouds: Clear
Visibility: 10 miles , 16 km
2019/10/15 15:55 KSCR 151555Z AUTO 05004KT 10SM CLR 22/07 A3016 RMK AO2 T02170071
KTDF - Roxboro Person, North Carolina, USA
Distance from station: NNW 49mi, 79km
Updated: Tue, 15-Oct-2019 11:55am EDT
Clear
Clear
 Wind from E
Wind: E 5 mph , 7 km/h
Temperature: 70°F , 21°C
Dew Point: 41°F , 5°C
Humidity: 35%
Barometer: 30.17 inHg , 1021.7 hPa
Clouds: Clear
Visibility: 10 miles , 16 km
2019/10/15 15:55 KTDF 151555Z AUTO 09004KT 10SM CLR 21/05 A3017 RMK AO2
 
KSOP - Southern Pines, North Carolina, USA
Distance from station: SW 50mi, 80km
Updated: Tue, 15-Oct-2019 11:56am EDT
Clear
Clear
 Wind from varies
Wind: varies 3 mph , 6 km/h
Temperature: 72°F , 22°C
Dew Point: 46°F , 8°C
Humidity: 41%
Barometer: 30.15 inHg , 1021 hPa
Clouds: Clear
Visibility: 10 miles , 16 km
2019/10/15 15:56 KSOP 151556Z AUTO VRB03KT 10SM CLR 22/08 A3015 RMK AO2 SLP214 T02220083
KHNZ - Henderson/Oxford, North Carolina, USA
Distance from station: N 52mi, 84km
Updated: Tue, 15-Oct-2019 12:15pm EDT
Clear
Clear
 Wind from calm
Wind: Calm
Temperature: 70°F , 21°C
Dew Point: 39°F , 4°C
Humidity: 33%
Barometer: 30.16 inHg , 1021.3 hPa
Clouds: Clear
Visibility: 10 miles , 16 km
2019/10/15 16:15 KHNZ 151615Z AUTO 00000KT 10SM CLR 21/04 A3016 RMK AO2 T02100043
 
KBUY - Burlington, North Carolina, USA
Distance from station: NW 54mi, 86km
Updated: Tue, 15-Oct-2019 11:54am EDT
Clear
Clear
 Wind from ESE
Wind: ESE 6 mph , 9 km/h
Temperature: 73°F , 23°C
Dew Point: 43°F , 6°C
Humidity: 33%
Barometer: 30.15 inHg , 1021 hPa
Clouds: Clear
Visibility: 10 miles , 16 km
2019/10/15 15:54 KBUY 151554Z AUTO 11005KT 10SM CLR 23/06 A3015 RMK AO2 SLP205 T02280056
KTNB - Boone Watauga Ct, North Carolina, USA
Distance from station: SE 2mi, 3km
Updated: Tue, 15-Oct-2019 11:55am EDT
Clear
Clear
 Wind from calm
Wind: Calm
Temperature: 64°F , 18°C
Dew Point: 37°F , 3°C
Humidity: 37%
Barometer: 30.19 inHg , 1022.4 hPa
Clouds: Clear
Visibility: 10 miles , 16 km
2019/10/15 15:55 KTNB 151555Z AUTO 00000KT 10SM CLR 18/03 A3019 RMK AO2 T01780027
 
KGEV - Jefferson, North Carolina, USA
Distance from station: NE 21mi, 33km
Updated: Tue, 15-Oct-2019 11:55am EDT
Clear
Clear
 Wind from SE
Wind: SE 5 mph , 7 km/h
Temperature: 61°F , 16°C
Dew Point: 39°F , 4°C
Humidity: 45%
Barometer: 30.19 inHg , 1022.4 hPa
Clouds: Clear
Visibility: 10 miles , 16 km
2019/10/15 15:55 KGEV 151555Z AUTO 13004KT 10SM CLR 16/04 A3019 RMK AO2 T01630044
KFQD - Rutherfordton, North Carolina, USA
Distance from station: SSW 57mi, 92km
Updated: Tue, 15-Oct-2019 11:55am EDT
Clear
Clear
 Wind from S
Wind: S 5 mph , 7 km/h
Temperature: 68°F , 20°C
Dew Point: 45°F , 7°C
Humidity: 43%
Barometer: 30.16 inHg , 1021.3 hPa
Clouds: Clear
Visibility: 10 miles , 16 km
2019/10/15 15:55 KFQD 151555Z AUTO 17004KT 10SM CLR 20/07 A3016 RMK AO2
 
KAVL - Asheville, North Carolina, USA
Distance from station: SW 72mi, 117km
Updated: Tue, 15-Oct-2019 11:54am EDT
Clear
Clear
 Wind from SSW
Wind: SSW 7 mph , 11 km/h
Temperature: 63°F , 17°C
Dew Point: 46°F , 8°C
Humidity: 56%
Barometer: 30.16 inHg , 1021.3 hPa
Clouds: Clear
Visibility: 10 miles , 16 km
2019/10/15 15:54 KAVL 151554Z 20006KT 10SM CLR 17/08 A3016 RMK AO2 SLP201 T01720083